Time;durP1;ratioP1;P1;durP2;ratioP2;P2;SDS_P1;SDS_P2;PMS_P1;PMS_P2;Temp;Humidity;BMP_temperature;BMP_pressure;BME280_temperature;BME280_humidity;BME280_pressure;Samples;Min_cycle;Max_cycle;Signal;HPM_P1;HPM_P2
2021/05/29 00:00:54;;;;;;;9.35;8.43;;;;;;;15.46;100.00;102457.81;5053394;28;20531;-65
2021/05/29 00:03:21;;;;;;;9.80;8.45;;;;;;;15.44;100.00;102465.47;5053223;28;20065;-67
2021/05/29 00:05:47;;;;;;;12.82;8.93;;;;;;;15.42;100.00;102467.59;5053412;28;20037;-66
2021/05/29 00:08:13;;;;;;;9.43;8.43;;;;;;;15.37;100.00;102460.91;5053330;28;20032;-64
2021/05/29 00:10:42;;;;;;;8.43;7.68;;;;;;;15.34;100.00;102464.13;5053299;28;20372;-66
2021/05/29 00:13:08;;;;;;;8.48;7.63;;;;;;;15.35;100.00;102473.22;5053058;28;20029;-66
2021/05/29 00:15:35;;;;;;;8.57;7.72;;;;;;;15.33;100.00;102475.38;5053217;28;20056;-64
2021/05/29 00:18:01;;;;;;;9.07;8.20;;;;;;;15.30;100.00;102471.19;5053085;28;20115;-64
2021/05/29 00:20:26;;;;;;;7.38;6.68;;;;;;;15.27;100.00;102466.16;5052859;28;20029;-65
2021/05/29 00:22:52;;;;;;;7.72;6.95;;;;;;;15.25;100.00;102468.28;5053029;28;20391;-68
2021/05/29 00:25:18;;;;;;;8.52;7.65;;;;;;;15.23;100.00;102467.66;5053132;28;20116;-67
2021/05/29 00:27:44;;;;;;;9.13;7.97;;;;;;;15.20;100.00;102464.56;5052948;28;20198;-64
2021/05/29 00:30:11;;;;;;;10.85;8.23;;;;;;;15.18;100.00;102463.94;5052748;28;20052;-66
2021/05/29 00:32:40;;;;;;;8.18;7.45;;;;;;;15.19;100.00;102469.22;5053028;28;20037;-63
2021/05/29 00:35:07;;;;;;;8.65;7.03;;;;;;;15.19;100.00;102477.47;5052586;28;20387;-67
2021/05/29 00:37:33;;;;;;;7.53;6.80;;;;;;;15.17;100.00;102470.53;5052826;28;20063;-65
2021/05/29 00:39:59;;;;;;;7.95;6.63;;;;;;;15.16;100.00;102468.84;5052742;28;20544;-64
2021/05/29 00:42:25;;;;;;;6.80;6.18;;;;;;;15.15;100.00;102469.91;5052730;28;20032;-66
2021/05/29 00:44:55;;;;;;;9.90;6.38;;;;;;;15.14;100.00;102466.34;5051014;28;20045;-67
2021/05/29 00:47:22;;;;;;;7.82;6.65;;;;;;;15.14;100.00;102469.09;5052548;28;20091;-66
2021/05/29 00:49:49;;;;;;;10.05;7.50;;;;;;;15.13;100.00;102464.66;5052570;28;20451;-67
2021/05/29 00:52:16;;;;;;;7.90;6.70;;;;;;;15.13;100.00;102459.16;5052593;28;20091;-64
2021/05/29 00:54:45;;;;;;;7.93;6.72;;;;;;;15.10;100.00;102456.88;5052173;28;20564;-66
2021/05/29 00:57:12;;;;;;;7.88;7.15;;;;;;;15.11;100.00;102460.47;5052387;28;20033;-66
2021/05/29 00:59:38;;;;;;;11.50;6.72;;;;;;;15.11;100.00;102469.56;5052456;28;20040;-64
2021/05/29 01:02:08;;;;;;;7.45;6.80;;;;;;;15.08;100.00;102467.25;5052376;28;20491;-67
2021/05/29 01:04:34;;;;;;;6.88;5.90;;;;;;;15.06;100.00;102463.88;5052058;28;20545;-66
2021/05/29 01:07:07;;;;;;;7.93;6.65;;;;;;;15.03;100.00;102469.88;5052236;28;20352;-64
2021/05/29 01:09:35;;;;;;;6.82;5.80;;;;;;;15.01;100.00;102466.50;5052400;28;20446;-66
2021/05/29 01:12:00;;;;;;;6.70;6.03;;;;;;;14.98;100.00;102467.81;5052028;28;20491;-68
2021/05/29 01:14:27;;;;;;;7.35;6.30;;;;;;;14.95;100.00;102473.78;5051798;28;20071;-68
2021/05/29 01:16:57;;;;;;;6.00;5.38;;;;;;;14.95;100.00;102478.44;5052161;28;20468;-69
2021/05/29 01:19:23;;;;;;;6.38;5.00;;;;;;;14.93;100.00;102473.19;5051970;28;20033;-64
2021/05/29 01:21:49;;;;;;;6.72;6.07;;;;;;;14.91;100.00;102477.22;5051998;28;20040;-66
2021/05/29 01:24:17;;;;;;;6.78;6.15;;;;;;;14.89;100.00;102480.19;5051724;28;20471;-66
2021/05/29 01:26:44;;;;;;;6.28;5.50;;;;;;;14.89;100.00;102480.19;5051947;28;20119;-64
2021/05/29 01:29:10;;;;;;;6.97;6.25;;;;;;;14.90;100.00;102486.53;5051366;28;20060;-66
2021/05/29 01:31:36;;;;;;;8.90;6.15;;;;;;;14.89;100.00;102488.44;5051083;28;20044;-64
2021/05/29 01:34:02;;;;;;;7.18;6.50;;;;;;;14.90;100.00;102481.03;5051565;28;20029;-66
2021/05/29 01:36:29;;;;;;;6.78;6.25;;;;;;;14.89;100.00;102485.69;5051653;28;20045;-67
2021/05/29 01:38:55;;;;;;;12.45;6.80;;;;;;;14.90;100.00;102486.53;5051459;28;20537;-63
2021/05/29 01:41:22;;;;;;;7.05;6.45;;;;;;;14.91;100.00;102493.72;5051820;28;20044;-64
2021/05/29 01:43:50;;;;;;;6.93;5.72;;;;;;;14.90;100.00;102489.28;5051457;28;20490;-65
2021/05/29 01:46:19;;;;;;;7.35;6.65;;;;;;;14.91;100.00;102485.47;5051504;28;20421;-65
2021/05/29 01:48:47;;;;;;;7.50;6.90;;;;;;;14.92;100.00;102489.91;5051335;28;20029;-67
2021/05/29 01:51:15;;;;;;;7.00;6.40;;;;;;;14.93;100.00;102486.09;5051336;28;20045;-63
2021/05/29 01:53:40;;;;;;;7.63;6.95;;;;;;;14.92;100.00;102490.72;5051157;28;20041;-64
2021/05/29 01:56:09;;;;;;;9.35;7.10;;;;;;;14.92;100.00;102485.22;5051297;28;20087;-68
2021/05/29 01:58:36;;;;;;;7.53;6.82;;;;;;;14.93;100.00;102488.84;5051159;28;20037;-66
2021/05/29 02:01:04;;;;;;;7.93;6.78;;;;;;;14.93;100.00;102491.59;5083551;28;20528;-64
2021/05/29 02:03:29;;;;;;;10.82;7.95;;;;;;;14.93;100.00;102492.44;5051192;28;20068;-65
2021/05/29 02:05:56;;;;;;;13.20;8.82;;;;;;;14.93;100.00;102494.34;5050986;28;20069;-65
2021/05/29 02:08:21;;;;;;;11.00;8.55;;;;;;;14.90;100.00;102489.28;5050997;28;20098;-64
2021/05/29 02:10:48;;;;;;;9.30;8.38;;;;;;;14.87;100.00;102490.59;5051188;28;20036;-66
2021/05/29 02:13:34;;;;;;;9.02;7.97;;;;;;;14.87;100.00;102487.00;5050838;28;20041;-67
2021/05/29 02:16:02;;;;;;;8.55;7.75;;;;;;;14.86;100.00;102485.31;5050905;28;20094;-64
2021/05/29 02:18:28;;;;;;;10.13;9.20;;;;;;;14.85;100.00;102489.16;5051240;28;20036;-67
2021/05/29 02:20:58;;;;;;;10.05;9.10;;;;;;;14.85;100.00;102489.16;5050821;28;20041;-64
2021/05/29 02:23:39;;;;;;;12.32;9.95;;;;;;;14.82;100.00;102490.47;5050731;28;20036;-64
2021/05/29 02:26:08;;;;;;;11.27;9.20;;;;;;;14.80;100.00;102497.25;5051166;28;20033;-67
2021/05/29 02:28:35;;;;;;;9.65;7.55;;;;;;;14.75;100.00;102493.28;5050914;28;20037;-63
2021/05/29 02:31:02;;;;;;;7.53;6.90;;;;;;;14.72;100.00;102493.72;5029987;28;20033;-66
2021/05/29 02:33:28;;;;;;;7.50;6.75;;;;;;;14.71;100.00;102500.31;5029779;28;20144;-68
2021/05/29 02:35:54;;;;;;;8.65;7.50;;;;;;;14.70;100.00;102498.63;5029813;28;20042;-63
2021/05/29 02:38:20;;;;;;;7.10;6.35;;;;;;;14.70;100.00;102495.88;5047729;28;20055;-66
2021/05/29 02:40:46;;;;;;;9.15;7.20;;;;;;;14.69;100.00;102496.94;5048439;28;20045;-65
2021/05/29 02:43:13;;;;;;;7.40;6.40;;;;;;;14.70;100.00;102493.13;5048929;28;20098;-66
2021/05/29 02:45:39;;;;;;;6.75;5.90;;;;;;;14.68;100.00;102495.28;5049781;28;20035;-68
2021/05/29 02:48:09;;;;;;;6.60;5.90;;;;;;;14.68;100.00;102498.03;5049221;28;20094;-67
2021/05/29 02:50:35;;;;;;;6.10;5.55;;;;;;;14.68;100.00;102499.94;5049707;28;20091;-65
2021/05/29 02:53:02;;;;;;;6.55;5.47;;;;;;;14.67;100.00;102496.34;5049654;28;20048;-67
2021/05/29 02:55:27;;;;;;;8.23;5.85;;;;;;;14.69;100.00;102507.94;5049517;28;20044;-69
2021/05/29 02:57:55;;;;;;;6.63;5.57;;;;;;;14.69;100.00;102502.44;5049603;28;20041;-66
2021/05/29 03:00:24;;;;;;;8.25;5.97;;;;;;;14.69;100.00;102502.44;5050069;28;20399;-66
2021/05/29 03:02:50;;;;;;;6.43;5.47;;;;;;;14.70;100.00;102504.13;5049553;28;20086;-68
2021/05/29 03:05:16;;;;;;;7.18;4.45;;;;;;;14.70;100.00;102504.13;5049964;28;20106;-65
2021/05/29 03:07:42;;;;;;;5.25;4.50;;;;;;;14.72;100.00;102503.91;5049538;28;20483;-68
2021/05/29 03:10:08;;;;;;;4.93;4.43;;;;;;;14.72;100.00;102501.13;5049312;28;20076;-65
2021/05/29 03:12:36;;;;;;;5.45;4.95;;;;;;;14.73;100.00;102503.66;5049594;28;20033;-67
2021/05/29 03:15:08;;;;;;;5.15;4.72;;;;;;;14.72;100.00;102507.47;5049154;28;20044;-67
2021/05/29 03:17:34;;;;;;;6.50;5.03;;;;;;;14.71;100.00;102500.31;5047961;28;20398;-64
2021/05/29 03:19:59;;;;;;;5.50;5.00;;;;;;;14.72;100.00;102504.72;5049434;28;20036;-66
2021/05/29 03:22:25;;;;;;;6.03;5.53;;;;;;;14.72;100.00;102507.47;5049429;28;20475;-65
2021/05/29 03:24:52;;;;;;;6.22;5.72;;;;;;;14.73;100.00;102498.16;5049028;28;20037;-63
2021/05/29 03:27:18;;;;;;;5.90;5.47;;;;;;;14.73;100.00;102492.66;5049330;28;20036;-64
2021/05/29 03:29:45;;;;;;;5.70;5.22;;;;;;;14.71;100.00;102497.56;5017631;28;1185518;-65
2021/05/29 03:32:11;;;;;;;6.90;5.97;;;;;;;14.71;100.00;102499.47;5070100;28;20033;-66
2021/05/29 03:34:37;;;;;;;7.82;5.60;;;;;;;14.71;100.00;102505.81;5069902;28;20398;-68
2021/05/29 03:37:03;;;;;;;6.70;6.15;;;;;;;14.70;100.00;102500.53;5070206;28;20042;-65
2021/05/29 03:39:29;;;;;;;6.70;5.97;;;;;;;14.68;100.00;102506.28;5070364;28;20040;-65
2021/05/29 03:41:54;;;;;;;4.45;4.05;;;;;;;14.62;100.00;102503.59;5070045;28;20456;-66
2021/05/29 03:44:20;;;;;;;3.03;2.72;;;;;;;14.56;100.00;102505.34;5069987;28;20037;-68
2021/05/29 03:46:46;;;;;;;4.22;3.80;;;;;;;14.53;100.00;102508.53;5070349;28;20056;-64
2021/05/29 03:49:12;;;;;;;3.28;3.08;;;;;;;14.54;100.00;102515.72;5070053;28;20037;-68
2021/05/29 03:51:37;;;;;;;3.50;3.22;;;;;;;14.54;100.00;102515.72;5068694;28;20040;-65
2021/05/29 03:54:03;;;;;;;3.70;3.40;;;;;;;14.55;100.00;102517.41;5070906;28;20037;-63
2021/05/29 03:56:29;;;;;;;3.03;2.55;;;;;;;14.54;100.00;102514.88;5073469;28;20116;-67
2021/05/29 03:58:55;;;;;;;3.17;2.97;;;;;;;14.55;100.00;102522.91;5073492;28;20041;-64
2021/05/29 04:01:20;;;;;;;3.30;2.35;;;;;;;14.55;100.00;102517.41;5073473;28;20079;-66
2021/05/29 04:03:46;;;;;;;2.50;2.38;;;;;;;14.55;100.00;102528.41;5073244;28;20495;-67
2021/05/29 04:06:12;;;;;;;3.00;2.42;;;;;;;14.55;100.00;102527.56;5073444;28;20044;-64
2021/05/29 04:08:38;;;;;;;2.80;2.60;;;;;;;14.55;100.00;102522.91;5073333;28;20040;-66
2021/05/29 04:11:03;;;;;;;2.20;2.10;;;;;;;14.54;100.00;102521.22;5073142;28;20051;-64
2021/05/29 04:13:29;;;;;;;2.70;2.25;;;;;;;14.57;100.00;102530.94;5073094;28;20486;-67
2021/05/29 04:15:55;;;;;;;3.15;2.45;;;;;;;14.56;100.00;102535.59;5073251;28;20469;-68
2021/05/29 04:18:20;;;;;;;3.88;2.45;;;;;;;14.55;100.00;102528.41;5072955;28;20037;-66
2021/05/29 04:20:46;;;;;;;3.53;2.45;;;;;;;14.54;100.00;102525.88;5073231;28;20529;-68
2021/05/29 04:23:12;;;;;;;2.33;2.13;;;;;;;14.53;100.00;102530.53;5073045;28;20045;-68
2021/05/29 04:25:38;;;;;;;3.47;2.58;;;;;;;14.53;100.00;102530.53;5072855;28;20036;-69
2021/05/29 04:28:04;;;;;;;4.05;2.65;;;;;;;14.54;100.00;102526.72;5072886;28;20123;-64
2021/05/29 04:30:30;;;;;;;3.05;2.45;;;;;;;14.53;100.00;102533.28;5072869;28;20520;-66
2021/05/29 04:32:56;;;;;;;2.67;2.15;;;;;;;14.53;100.00;102530.53;5072830;28;20094;-67
2021/05/29 04:35:22;;;;;;;2.83;2.63;;;;;;;14.51;100.00;102535.44;5072708;28;20406;-65
2021/05/29 04:37:49;;;;;;;2.85;2.50;;;;;;;14.51;100.00;102543.69;5073264;28;20430;-65
2021/05/29 04:40:18;;;;;;;2.83;2.30;;;;;;;14.51;100.00;102535.44;5072585;28;20028;-67
2021/05/29 04:42:43;;;;;;;2.80;2.60;;;;;;;14.52;100.00;102539.88;5072636;28;20062;-65
2021/05/29 04:45:11;;;;;;;4.28;3.88;;;;;;;14.53;100.00;102541.53;5072668;28;20040;-64
2021/05/29 04:47:37;;;;;;;6.50;4.65;;;;;;;14.52;100.00;102545.38;5072709;28;20036;-68
2021/05/29 04:50:05;;;;;;;7.38;5.65;;;;;;;14.51;100.00;102549.19;5071293;28;20075;-63
2021/05/29 04:52:30;;;;;;;6.43;5.78;;;;;;;14.52;100.00;102548.13;5072457;28;20460;-67
2021/05/29 04:54:56;;;;;;;6.57;5.78;;;;;;;14.54;100.00;102554.22;5072121;28;20037;-64
2021/05/29 04:57:22;;;;;;;7.65;6.15;;;;;;;14.55;100.00;102547.66;5072426;28;20059;-67
2021/05/29 04:59:48;;;;;;;8.43;6.82;;;;;;;14.55;100.00;102549.56;5072353;28;20470;-66
2021/05/29 05:02:14;;;;;;;8.02;6.82;;;;;;;14.57;100.00;102553.78;5072273;28;20390;-67
2021/05/29 05:04:39;;;;;;;7.72;6.93;;;;;;;14.61;100.00;102554.19;5072063;28;20446;-68
2021/05/29 05:07:05;;;;;;;8.35;7.10;;;;;;;14.65;100.00;102556.25;5071438;28;20516;-66
2021/05/29 05:09:31;;;;;;;8.05;6.43;;;;;;;14.68;100.00;102558.53;5071849;28;20032;-67
2021/05/29 05:11:57;;;;;;;6.13;5.53;;;;;;;14.71;100.00;102555.31;5072171;28;20394;-67
2021/05/29 05:14:22;;;;;;;6.70;6.10;;;;;;;14.72;100.00;102561.66;5072044;28;20410;-66
2021/05/29 05:16:48;;;;;;;6.95;5.63;;;;;;;14.73;100.00;102557.84;5072059;28;20032;-66
2021/05/29 05:19:14;;;;;;;7.03;6.05;;;;;;;14.70;100.00;102559.13;5071870;28;20032;-68
2021/05/29 05:21:40;;;;;;;8.02;6.22;;;;;;;14.70;100.00;102553.63;5071991;28;20039;-65
2021/05/29 05:24:09;;;;;;;9.43;7.07;;;;;;;14.71;100.00;102560.81;5071626;28;20524;-65
2021/05/29 05:26:35;;;;;;;8.52;7.13;;;;;;;14.73;100.00;102564.19;5071806;28;20147;-67
2021/05/29 05:29:01;;;;;;;10.52;7.30;;;;;;;14.75;100.00;102562.06;5071382;28;20522;-65
2021/05/29 05:31:27;;;;;;;7.43;6.72;;;;;;;14.75;100.00;102564.81;5071768;28;20107;-65
2021/05/29 05:33:53;;;;;;;16.05;8.07;;;;;;;14.76;100.00;102566.50;5071588;28;20072;-65
2021/05/29 05:36:21;;;;;;;8.93;6.68;;;;;;;14.76;100.00;102572.00;5071633;28;20146;-65
2021/05/29 05:38:47;;;;;;;7.65;6.95;;;;;;;14.76;100.00;102563.75;5071392;28;20449;-64
2021/05/29 05:41:13;;;;;;;7.10;6.38;;;;;;;14.81;100.00;102564.97;5070247;28;20036;-68
2021/05/29 05:43:39;;;;;;;8.23;6.75;;;;;;;14.84;100.00;102570.00;5071402;28;20066;-66
2021/05/29 05:46:07;;;;;;;7.75;6.80;;;;;;;14.88;100.00;102566.56;5070066;28;20110;-64
2021/05/29 05:48:33;;;;;;;8.82;7.50;;;;;;;14.92;100.00;102565.03;5071489;28;20466;-64
2021/05/29 05:51:00;;;;;;;6.78;6.18;;;;;;;14.97;100.00;102564.38;5071373;28;20032;-68
2021/05/29 05:53:30;;;;;;;7.18;6.47;;;;;;;15.00;100.00;102570.25;5071040;28;20067;-66
2021/05/29 05:55:59;;;;;;;8.80;6.93;;;;;;;15.05;100.00;102569.53;5071319;28;20394;-68
2021/05/29 05:58:26;;;;;;;7.78;6.95;;;;;;;15.07;100.00;102572.91;5071156;28;20064;-69
2021/05/29 06:00:51;;;;;;;7.57;6.00;;;;;;;15.09;100.00;102574.34;5071128;28;20040;-66
2021/05/29 06:03:19;;;;;;;6.95;6.10;;;;;;;15.14;100.00;102581.94;5071071;28;20086;-68
2021/05/29 06:05:45;;;;;;;6.18;5.68;;;;;;;15.14;100.00;102581.94;5071152;28;20028;-64
2021/05/29 06:08:11;;;;;;;6.65;6.05;;;;;;;15.13;100.00;102583.00;5070949;28;20051;-65
2021/05/29 06:10:37;;;;;;;6.10;5.57;;;;;;;15.13;100.00;102585.75;5070997;28;20132;-66
2021/05/29 06:13:03;;;;;;;7.50;5.43;;;;;;;15.13;100.00;102585.75;5070909;28;20116;-68
2021/05/29 06:21:18;;;;;;;5.45;4.85;;;;;;;15.16;100.00;102589.97;5048369;28;20120;-66
2021/05/29 06:23:46;;;;;;;5.57;5.05;;;;;;;15.14;100.00;102592.94;5048333;28;20118;-68
2021/05/29 06:26:11;;;;;;;5.18;4.68;;;;;;;15.17;100.00;102591.63;5059254;28;20102;-65
2021/05/29 06:28:37;;;;;;;8.50;5.55;;;;;;;15.19;100.00;102600.50;5070795;28;20033;-64
2021/05/29 06:31:04;;;;;;;10.35;5.00;;;;;;;15.20;100.00;102597.53;5070535;28;20060;-66
2021/05/29 06:33:31;;;;;;;7.03;4.95;;;;;;;15.23;100.00;102602.56;5070775;28;20044;-67
2021/05/29 06:35:57;;;;;;;5.50;4.75;;;;;;;15.26;100.00;102596.59;5070733;28;20036;-67
2021/05/29 06:38:24;;;;;;;5.43;4.90;;;;;;;15.30;100.00;102595.09;5070562;28;20046;-67
2021/05/29 06:40:50;;;;;;;5.88;4.30;;;;;;;15.34;100.00;102593.53;5070741;28;20040;-64
2021/05/29 06:43:16;;;;;;;6.63;4.68;;;;;;;15.38;100.00;102599.41;5070570;28;20043;-67
2021/05/29 06:45:42;;;;;;;5.53;4.80;;;;;;;15.42;100.00;102605.28;5070460;28;20059;-64
2021/05/29 06:48:10;;;;;;;4.45;4.05;;;;;;;15.47;100.00;102608.22;5070676;28;20054;-64
2021/05/29 06:50:36;;;;;;;4.70;4.40;;;;;;;15.52;100.00;102606.44;5070540;28;20127;-67
2021/05/29 06:53:04;;;;;;;5.00;4.30;;;;;;;15.58;100.00;102610.16;5070354;28;20119;-68
2021/05/29 07:01:00;;;;;;;3.83;3.53;;;;;;;15.69;100.00;102614.94;5070459;28;20040;-65
2021/05/29 07:03:25;;;;;;;4.20;3.60;;;;;;;15.71;100.00;102621.03;5070297;28;20483;-64
2021/05/29 07:05:52;;;;;;;6.88;4.10;;;;;;;15.73;100.00;102616.13;5069190;28;20105;-68
2021/05/29 07:08:17;;;;;;;4.45;3.70;;;;;;;15.81;100.00;102620.50;5070253;28;20570;-65
2021/05/29 07:10:44;;;;;;;5.10;4.40;;;;;;;15.86;100.00;102618.72;5070493;28;20518;-67
2021/05/29 07:13:10;;;;;;;6.28;4.18;;;;;;;15.91;100.00;102610.56;5070215;28;20050;-67
2021/05/29 07:15:39;;;;;;;7.53;4.15;;;;;;;15.97;100.00;102609.66;5070131;28;20501;-67
2021/05/29 07:18:11;;;;;;;8.55;4.80;;;;;;;16.05;100.00;102618.66;5070367;28;20542;-65
2021/05/29 07:20:38;;;;;;;4.90;4.10;;;;;;;16.11;100.00;102618.53;5070319;28;20075;-66
2021/05/29 07:23:04;;;;;;;7.70;4.75;;;;;;;16.20;100.00;102619.06;5070073;28;20044;-65
2021/05/29 07:25:30;;;;;;;4.97;4.00;;;;;;;16.27;100.00;102620.63;5070264;28;20032;-65
2021/05/29 07:27:56;;;;;;;8.60;4.85;;;;;;;16.33;100.00;102626.28;5070241;28;20043;-63
2021/05/29 07:30:22;;;;;;;5.22;3.78;;;;;;;16.41;100.00;102625.91;5073031;28;20109;-68
2021/05/29 07:32:48;;;;;;;6.78;3.95;;;;;;;16.49;100.00;102622.81;5073929;28;20060;-63
2021/05/29 07:35:14;;;;;;;7.20;4.20;;;;;;;16.62;100.00;102624.50;5073775;28;20079;-67
2021/05/29 07:37:40;;;;;;;8.50;4.95;;;;;;;16.78;100.00;102632.09;5073829;28;20033;-67
2021/05/29 07:40:08;;;;;;;7.63;5.70;;;;;;;16.87;100.00;102622.38;5073820;28;20078;-68
2021/05/29 07:42:34;;;;;;;7.97;6.18;;;;;;;17.01;100.00;102626.56;5073896;28;20072;-65
2021/05/29 07:45:00;;;;;;;6.22;5.63;;;;;;;17.14;100.00;102626.28;5073538;28;20059;-67
2021/05/29 07:47:26;;;;;;;8.02;5.82;;;;;;;17.23;100.00;102634.22;5074189;28;20111;-67
2021/05/29 07:49:52;;;;;;;10.77;6.53;;;;;;;17.49;100.00;102628.13;5073626;28;20044;-64
2021/05/29 07:52:17;;;;;;;8.35;6.72;;;;;;;17.68;100.00;102626.88;5073519;28;20117;-66
2021/05/29 07:54:44;;;;;;;10.40;6.57;;;;;;;17.73;100.00;102624.25;5072073;28;20045;-67
2021/05/29 07:57:10;;;;;;;10.45;6.65;;;;;;;17.88;100.00;102631.16;5073637;28;20076;-65
2021/05/29 07:59:37;;;;;;;14.13;7.88;;;;;;;18.09;100.00;102630.44;5073340;28;20069;-69
2021/05/29 08:02:04;;;;;;;9.07;7.88;;;;;;;18.13;100.00;102633.53;5073469;28;20036;-65
2021/05/29 08:04:30;;;;;;;12.35;7.10;;;;;;;18.15;100.00;102634.13;5073421;28;20064;-66
2021/05/29 08:06:56;;;;;;;13.80;8.10;;;;;;;18.24;100.00;102636.25;5073220;28;20111;-66
2021/05/29 08:09:22;;;;;;;9.52;7.15;;;;;;;18.49;100.00;102637.75;5073364;28;20548;-65
2021/05/29 08:11:48;;;;;;;11.23;7.88;;;;;;;18.73;100.00;102639.28;5073550;28;20450;-67
2021/05/29 08:14:15;;;;;;;11.75;8.50;;;;;;;18.87;100.00;102634.22;5072896;28;20123;-69
2021/05/29 08:16:42;;;;;;;11.32;8.07;;;;;;;18.95;100.00;102647.66;5073206;28;20036;-65
2021/05/29 08:19:09;;;;;;;14.10;8.80;;;;;;;19.04;100.00;102639.75;5073164;28;20033;-67
2021/05/29 08:21:46;;;;;;;13.93;8.88;;;;;;;19.11;100.00;102645.94;5072987;28;20111;-66
2021/05/29 08:24:13;;;;;;;11.77;8.38;;;;;;;19.15;100.00;102644.34;5073205;28;20037;-66
2021/05/29 08:26:39;;;;;;;12.30;8.13;;;;;;;19.13;100.00;102643.75;5073052;28;20040;-67
2021/05/29 08:29:06;;;;;;;9.48;7.63;;;;;;;19.13;100.00;102643.75;5072808;28;20037;-67
2021/05/29 08:31:33;;;;;;;14.00;8.45;;;;;;;19.14;100.00;102645.44;5073007;28;20124;-66
2021/05/29 08:33:59;;;;;;;11.38;8.32;;;;;;;19.17;100.00;102648.53;5072796;28;20036;-68
2021/05/29 08:36:26;;;;;;;9.15;6.82;;;;;;;19.21;100.00;102640.53;5072650;28;20033;-67
2021/05/29 08:38:52;;;;;;;9.68;6.60;;;;;;;19.23;100.00;102643.88;5072951;28;20664;-65
2021/05/29 08:41:17;;;;;;;16.00;8.32;;;;;;;19.36;100.00;102649.06;5072735;28;20048;-64
2021/05/29 08:43:44;;;;;;;7.45;6.57;;;;;;;19.37;100.00;102656.28;5071229;28;20115;-70
2021/05/29 08:46:10;;;;;;;8.63;6.45;;;;;;;19.44;100.00;102654.16;5072715;28;20198;-66
2021/05/29 08:48:40;;;;;;;7.35;6.53;;;;;;;19.52;100.00;102652.88;5072569;28;20037;-66
2021/05/29 08:51:13;;;;;;;10.45;6.53;;;;;;;19.58;100.00;102655.47;5072620;28;20044;-65
2021/05/29 08:53:50;;;;;;;7.05;5.45;;;;;;;19.64;100.00;102661.09;5072299;28;20063;-65
2021/05/29 08:56:17;;;;;;;9.43;6.43;;;;;;;19.70;100.00;102651.72;5072528;28;20028;-67
2021/05/29 08:58:44;;;;;;;6.53;5.32;;;;;;;19.86;100.00;102670.22;5072170;28;20040;-66
2021/05/29 09:01:10;;;;;;;7.80;6.05;;;;;;;19.90;100.00;102656.66;5072479;28;20076;-66
2021/05/29 09:03:49;;;;;;;8.63;5.45;;;;;;;19.93;100.00;102665.28;5072208;28;20131;-68
2021/05/29 09:06:19;;;;;;;7.45;5.28;;;;;;;19.95;100.00;102663.09;5072141;28;20043;-66
2021/05/29 09:08:56;;;;;;;6.35;5.60;;;;;;;20.11;100.00;102666.84;5072236;28;20525;-66
2021/05/29 09:11:37;;;;;;;6.72;5.70;;;;;;;20.23;100.00;102663.94;5072128;28;20113;-64
2021/05/29 09:14:26;;;;;;;7.68;6.07;;;;;;;20.37;100.00;102670.72;5071768;28;20062;-68
2021/05/29 09:17:02;;;;;;;8.68;6.90;;;;;;;20.69;100.00;102671.59;5072234;28;20040;-66
2021/05/29 09:19:28;;;;;;;9.65;5.95;;;;;;;20.74;100.00;102676.34;5072010;28;20037;-63
2021/05/29 09:21:54;;;;;;;7.57;5.50;;;;;;;20.83;100.00;102673.94;5071763;28;20036;-68
2021/05/29 09:24:20;;;;;;;7.57;6.43;;;;;;;21.07;100.00;102683.53;5071813;28;20059;-66
2021/05/29 09:26:54;;;;;;;8.50;6.70;;;;;;;21.05;100.00;102682.97;5071663;28;20085;-66
2021/05/29 09:29:23;;;;;;;12.65;8.85;;;;;;;21.08;100.00;102679.66;5071423;28;20504;-65
2021/05/29 09:32:01;;;;;;;16.15;9.82;;;;;;;21.06;100.00;102690.19;5071903;28;20040;-65
2021/05/29 09:34:53;;;;;;;11.73;9.07;;;;;;;21.05;100.00;102689.34;5071485;28;20032;-65
2021/05/29 09:37:26;;;;;;;16.70;10.90;;;;;;;21.06;100.00;102695.75;5071688;28;20036;-66
2021/05/29 09:40:04;;;;;;;15.82;11.93;;;;;;;20.97;100.00;102702.91;5071647;28;20467;-67
2021/05/29 09:42:37;;;;;;;15.80;10.70;;;;;;;21.00;100.00;102705.13;5071495;28;20494;-69
2021/05/29 09:45:33;;;;;;;15.20;10.53;;;;;;;20.95;100.00;102705.09;5071395;28;20025;-68
2021/05/29 09:48:20;;;;;;;16.38;10.32;;;;;;;20.88;100.00;102698.97;5048813;28;20324;-67
2021/05/29 09:51:11;;;;;;;14.43;9.82;;;;;;;20.86;100.00;102701.16;5048801;28;20191;-65
2021/05/29 09:53:41;;;;;;;9.93;8.60;;;;;;;20.89;100.00;102700.63;5071457;28;20111;-66
2021/05/29 09:56:22;;;;;;;13.52;8.43;;;;;;;20.92;100.00;102709.25;5071288;28;20033;-67
2021/05/29 09:59:19;;;;;;;11.20;7.72;;;;;;;20.96;100.00;102706.78;5071168;28;20028;-67
2021/05/29 10:01:54;;;;;;;13.50;9.13;;;;;;;21.01;100.00;102707.69;5071231;28;20036;-63
2021/05/29 10:04:26;;;;;;;13.00;8.38;;;;;;;21.02;100.00;102709.34;5071024;28;20038;-67
2021/05/29 10:07:00;;;;;;;9.85;7.82;;;;;;;21.09;100.00;102709.09;5071226;28;20040;-66
2021/05/29 10:09:26;;;;;;;12.30;8.65;;;;;;;21.12;100.00;102716.91;5071103;28;20112;-67
2021/05/29 10:11:53;;;;;;;9.13;7.55;;;;;;;21.10;100.00;102710.78;5070677;28;20135;-66
2021/05/29 10:14:19;;;;;;;10.77;8.68;;;;;;;21.06;100.00;102717.97;5070770;28;20111;-68
2021/05/29 10:16:47;;;;;;;12.13;8.02;;;;;;;21.01;100.00;102712.41;5070948;28;20177;-65
2021/05/29 10:19:13;;;;;;;9.40;7.90;;;;;;;20.98;100.00;102715.69;5070704;28;20044;-65
2021/05/29 10:21:39;;;;;;;9.60;7.47;;;;;;;21.00;100.00;102714.34;5070881;28;20048;-68
2021/05/29 10:24:06;;;;;;;7.45;6.45;;;;;;;21.08;100.00;102710.22;5070833;28;20036;-65
2021/05/29 10:26:32;;;;;;;7.65;6.82;;;;;;;21.13;100.00;102717.72;5070621;28;20094;-67
2021/05/29 10:29:00;;;;;;;10.98;7.88;;;;;;;21.12;100.00;102711.34;5070854;28;20040;-64
2021/05/29 10:31:34;;;;;;;9.20;8.20;;;;;;;21.13;100.00;102713.00;5070661;28;20479;-69
2021/05/29 10:34:00;;;;;;;9.20;8.13;;;;;;;21.11;100.00;102715.22;5070396;28;20051;-67
2021/05/29 10:36:44;;;;;;;12.60;7.80;;;;;;;21.14;100.00;102709.13;5070688;28;20546;-65
2021/05/29 10:39:30;;;;;;;9.65;8.60;;;;;;;21.19;100.00;102711.97;5070558;28;20040;-66
2021/05/29 10:41:55;;;;;;;12.00;9.10;;;;;;;21.24;100.00;102712.03;5062913;28;20054;-68
2021/05/29 10:44:29;;;;;;;11.38;9.20;;;;;;;21.30;100.00;102710.94;5070578;28;20029;-65
2021/05/29 10:47:08;;;;;;;11.95;9.48;;;;;;;21.38;100.00;102717.09;5070695;28;20115;-70
2021/05/29 10:49:49;;;;;;;12.55;8.93;;;;;;;21.45;100.00;102718.53;5070674;28;20500;-67
2021/05/29 10:52:30;;;;;;;13.73;9.25;;;;;;;21.47;100.00;102712.69;5070702;28;20070;-65
2021/05/29 10:55:08;;;;;;;11.70;8.50;;;;;;;21.46;100.00;102722.13;5070513;28;20024;-66
2021/05/29 10:58:02;;;;;;;11.80;8.82;;;;;;;21.41;100.00;102713.78;5070269;28;20638;-67
2021/05/29 11:00:37;;;;;;;12.55;8.00;;;;;;;21.42;100.00;102715.44;5065511;28;20498;-69
2021/05/29 11:03:16;;;;;;;11.52;8.18;;;;;;;21.38;100.00;102719.88;5070395;28;20040;-67
2021/05/29 11:05:43;;;;;;;12.57;7.80;;;;;;;21.55;100.00;102720.53;5074096;28;20099;-66
2021/05/29 11:08:47;;;;;;;9.27;8.15;;;;;;;21.59;97.98;102716.94;5074413;28;20032;-65
2021/05/29 11:11:36;;;;;;;9.68;7.07;;;;;;;21.81;96.95;102716.75;5074299;28;20339;-65
2021/05/29 11:14:06;;;;;;;13.13;8.50;;;;;;;22.10;97.30;102717.16;5054259;28;20525;-67
2021/05/29 11:16:53;;;;;;;10.63;8.30;;;;;;;22.35;96.60;102719.13;5074114;28;20029;-63
2021/05/29 11:19:31;;;;;;;14.30;9.07;;;;;;;22.54;96.21;102711.91;5066811;28;20052;-67
2021/05/29 11:22:12;;;;;;;12.18;10.15;;;;;;;22.72;96.07;102712.47;5074122;28;20036;-65
2021/05/29 11:24:50;;;;;;;14.52;10.65;;;;;;;22.80;94.92;102714.72;5074128;28;20028;-65
2021/05/29 11:27:31;;;;;;;12.05;10.52;;;;;;;22.79;93.33;102713.88;5074190;28;20028;-68
2021/05/29 11:30:03;;;;;;;11.68;9.80;;;;;;;22.82;94.22;102718.09;5073722;28;20519;-64
2021/05/29 11:32:58;;;;;;;15.23;10.35;;;;;;;22.78;89.39;102716.97;5073960;28;20440;-67